Time;durP1;ratioP1;P1;durP2;ratioP2;P2;SDS_P1;SDS_P2;PMS_P1;PMS_P2;Temp;Humidity;BMP_temperature;BMP_pressure;BME280_temperature;BME280_humidity;BME280_pressure;Samples;Min_cycle;Max_cycle;Signal;HPM_P1;HPM_P2
2022/11/15 00:02:30;;;;;;;28.23;11.60;;;;;3.70;96260.00;;;;8264074;28;20245;-79
2022/11/15 00:06:35;;;;;;;32.50;13.13;;;;;3.80;96263.00;;;;8263884;28;20220;-78
2022/11/15 00:11:10;;;;;;;31.03;12.77;;;;;3.90;96251.00;;;;8264266;28;20218;-78
2022/11/15 00:15:14;;;;;;;34.00;12.00;;;;;3.90;96262.00;;;;8264135;28;20222;-78
2022/11/15 00:19:50;;;;;;;27.17;12.37;;;;;3.90;96257.00;;;;8261871;28;20292;-78
2022/11/15 00:23:55;;;;;;;26.70;11.80;;;;;3.90;96267.00;;;;8263202;28;20225;-78
2022/11/15 00:28:29;;;;;;;22.57;11.00;;;;;3.80;96261.00;;;;8263330;28;20272;-77
2022/11/15 00:32:32;;;;;;;24.63;10.77;;;;;3.70;96252.00;;;;8262939;28;20230;-77
2022/11/15 00:37:07;;;;;;;26.63;11.37;;;;;3.70;96258.00;;;;8263559;28;20560;-76
2022/11/15 00:41:11;;;;;;;24.80;10.33;;;;;3.60;96248.00;;;;8263175;28;20218;-76
2022/11/15 00:45:45;;;;;;;21.63;10.17;;;;;3.50;96248.00;;;;8262152;28;20222;-75
2022/11/15 00:49:48;;;;;;;24.27;10.43;;;;;3.50;96239.00;;;;8262607;28;20564;-75
2022/11/15 00:53:51;;;;;;;34.03;12.73;;;;;3.40;96230.00;;;;8263001;28;20223;-75
2022/11/15 00:58:29;;;;;;;32.33;15.17;;;;;3.30;96232.00;;;;8262433;28;20262;-74
2022/11/15 01:02:32;;;;;;;26.77;10.17;;;;;3.30;96223.00;;;;8261586;28;20249;-75
2022/11/15 01:06:35;;;;;;;25.47;10.93;;;;;3.20;96223.00;;;;8263463;28;20240;-74
2022/11/15 01:11:13;;;;;;;27.27;11.63;;;;;3.20;96215.00;;;;8261626;28;20232;-74
2022/11/15 01:15:17;;;;;;;29.50;12.40;;;;;3.10;96216.00;;;;8262262;28;20228;-73
2022/11/15 01:19:20;;;;;;;31.27;13.37;;;;;3.10;96207.00;;;;8262092;28;20221;-74
2022/11/15 01:23:24;;;;;;;27.60;11.97;;;;;3.10;96205.00;;;;8261295;28;20226;-73
2022/11/15 01:27:27;;;;;;;39.73;13.23;;;;;3.00;96201.00;;;;8265617;28;20225;-73
2022/11/15 01:32:05;;;;;;;31.23;12.87;;;;;3.00;96192.00;;;;8268428;28;20350;-73
2022/11/15 01:36:11;;;;;;;26.80;11.60;;;;;3.00;96190.00;;;;8268795;28;20233;-73
2022/11/15 01:40:14;;;;;;;27.37;11.77;;;;;3.00;96194.00;;;;8268844;28;20229;-73
2022/11/15 01:44:51;;;;;;;39.10;13.57;;;;;3.00;96182.00;;;;8268593;28;20228;-72
2022/11/15 01:48:59;;;;;;;35.57;12.40;;;;;3.00;96175.00;;;;8267410;28;20244;-72
2022/11/15 01:53:02;;;;;;;39.43;14.53;;;;;3.10;96178.00;;;;8268945;28;20226;-71
2022/11/15 01:57:09;;;;;;;42.47;14.00;;;;;3.10;96166.00;;;;8267331;28;20262;-71
2022/11/15 02:01:13;;;;;;;33.70;14.07;;;;;3.30;96174.00;;;;8268267;28;20236;-71
2022/11/15 02:05:18;;;;;;;31.90;12.03;;;;;3.20;96171.00;;;;8268130;28;20366;-71
2022/11/15 02:09:21;;;;;;;26.70;12.67;;;;;3.20;96178.00;;;;8267369;28;20238;-72
2022/11/15 02:13:24;;;;;;;26.67;10.30;;;;;3.10;96171.00;;;;8266895;28;20239;-71
2022/11/15 02:18:02;;;;;;;30.70;11.30;;;;;2.90;96155.00;;;;8268022;28;20227;-71
2022/11/15 02:22:20;;;;;;;33.40;13.20;;;;;2.80;96157.00;;;;8267028;28;20232;-71
2022/11/15 02:27:06;;;;;;;32.33;12.50;;;;;2.80;96149.00;;;;8267006;28;20572;-71
2022/11/15 02:31:29;;;;;;;29.37;11.93;;;;;2.90;96141.00;;;;8264439;28;20302;-71
2022/11/15 02:35:43;;;;;;;33.30;13.03;;;;;2.90;96134.00;;;;8267116;28;20225;-71
2022/11/15 02:40:10;;;;;;;35.30;13.53;;;;;2.90;96132.00;;;;8266655;28;20229;-70
2022/11/15 02:44:18;;;;;;;33.67;12.10;;;;;2.90;96121.00;;;;8267981;28;20221;-71
2022/11/15 02:48:51;;;;;;;27.10;11.97;;;;;2.90;96113.00;;;;8266162;28;20548;-71
2022/11/15 02:52:54;;;;;;;34.23;12.57;;;;;2.90;96114.00;;;;8265042;28;20576;-71
2022/11/15 02:57:02;;;;;;;29.17;11.23;;;;;2.80;96102.00;;;;8267562;28;20300;-70
2022/11/15 03:01:13;;;;;;;27.00;11.20;;;;;2.70;96107.00;;;;8266937;28;20580;-70
2022/11/15 03:05:24;;;;;;;29.87;11.40;;;;;2.70;96114.00;;;;8266416;28;20243;-70
2022/11/15 03:09:53;;;;;;;23.83;11.20;;;;;2.60;96108.00;;;;8265868;28;20239;-70
2022/11/15 03:13:59;;;;;;;30.07;12.87;;;;;2.50;96101.00;;;;8265562;28;20223;-70
2022/11/15 03:18:09;;;;;;;28.27;12.03;;;;;2.50;96101.00;;;;8265971;28;20217;-70
2022/11/15 03:22:43;;;;;;;30.23;11.50;;;;;2.50;96097.00;;;;8266495;28;20655;-70
2022/11/15 03:27:22;;;;;;;31.50;13.53;;;;;2.40;96102.00;;;;8265756;28;20224;-70
2022/11/15 03:31:58;;;;;;;35.83;14.57;;;;;2.50;96100.00;;;;8264944;28;20225;-70
2022/11/15 03:36:01;;;;;;;46.70;16.17;;;;;2.60;96089.00;;;;8265880;28;20253;-69
2022/11/15 03:40:07;;;;;;;39.07;17.07;;;;;2.80;96100.00;;;;8265476;28;20276;-69
2022/11/15 03:44:16;;;;;;;48.83;17.13;;;;;3.10;96096.00;;;;8257960;28;20284;-69
2022/11/15 03:48:46;;;;;;;40.37;16.23;;;;;3.10;96090.00;;;;8265126;28;20220;-69
2022/11/15 03:52:51;;;;;;;49.10;17.67;;;;;3.10;96088.00;;;;8264832;28;20229;-69
2022/11/15 03:57:26;;;;;;;34.40;13.37;;;;;3.20;96094.00;;;;8264076;28;20668;-69
2022/11/15 04:01:29;;;;;;;39.60;15.03;;;;;3.20;96077.00;;;;8264455;28;20655;-69
2022/11/15 04:05:32;;;;;;;37.17;13.93;;;;;3.20;96079.00;;;;8264952;28;20315;-69
2022/11/15 04:10:01;;;;;;;42.00;15.60;;;;;3.20;96072.00;;;;8264413;28;20564;-69
2022/11/15 04:14:14;;;;;;;43.17;14.30;;;;;3.20;96078.00;;;;8263567;28;20225;-69
2022/11/15 04:18:17;;;;;;;31.00;13.33;;;;;3.30;96086.00;;;;8265029;28;20229;-69
2022/11/15 04:26:56;;;;;;;26.03;11.50;;;;;3.00;96086.00;;;;8263064;28;20231;-70
2022/11/15 04:31:34;;;;;;;23.27;11.03;;;;;2.70;96083.00;;;;8264437;28;20264;-71
2022/11/15 04:40:27;;;;;;;26.97;12.13;;;;;2.40;96074.00;;;;8263017;28;20696;-72
2022/11/15 04:44:30;;;;;;;28.63;12.23;;;;;2.30;96072.00;;;;8263579;28;20257;-77
2022/11/15 04:48:33;;;;;;;27.10;13.07;;;;;2.30;96071.00;;;;8263196;28;20280;-72
2022/11/15 04:58:11;;;;;;;36.23;14.33;;;;;2.40;96054.00;;;;8262278;28;20222;-72
2022/11/15 05:02:14;;;;;;;34.60;14.13;;;;;2.40;96057.00;;;;8262706;28;20220;-71
2022/11/15 05:06:17;;;;;;;39.37;13.97;;;;;2.50;96049.00;;;;8261936;28;20667;-71
2022/11/15 05:10:53;;;;;;;41.70;15.50;;;;;2.60;96052.00;;;;8262835;28;20248;-71
2022/11/15 05:15:32;;;;;;;40.67;15.03;;;;;2.70;96038.00;;;;8262497;28;20225;-81
2022/11/15 05:19:35;;;;;;;31.97;13.13;;;;;2.70;96039.00;;;;8262122;28;20280;-74
2022/11/15 05:23:38;;;;;;;37.93;13.80;;;;;2.70;96033.00;;;;8262034;28;20243;-75
2022/11/15 05:27:41;;;;;;;36.17;13.97;;;;;2.60;96036.00;;;;8262866;28;20243;-77
2022/11/15 05:32:19;;;;;;;33.33;13.03;;;;;2.50;96033.00;;;;8260510;28;20233;-76
2022/11/15 05:36:30;;;;;;;40.03;15.20;;;;;2.50;96024.00;;;;8261822;28;20533;-74
2022/11/15 05:40:57;;;;;;;74.17;21.53;;;;;2.50;96029.00;;;;8262268;28;20549;-72
2022/11/15 05:45:22;;;;;;;59.43;19.63;;;;;2.60;96034.00;;;;8260445;28;20246;-72
2022/11/15 05:49:34;;;;;;;32.23;12.70;;;;;2.70;96024.00;;;;8261860;28;20221;-72
2022/11/15 05:54:05;;;;;;;30.33;12.60;;;;;2.50;96021.00;;;;8262693;28;20282;-72
2022/11/15 05:58:09;;;;;;;36.20;14.57;;;;;2.40;96019.00;;;;8261638;28;20219;-72
2022/11/15 06:02:46;;;;;;;38.00;14.40;;;;;2.40;96002.00;;;;8262233;28;20667;-72
2022/11/15 06:06:50;;;;;;;49.37;19.23;;;;;2.60;95998.00;;;;8261773;28;20233;-71
2022/11/15 06:11:24;;;;;;;56.07;18.97;;;;;3.20;96004.00;;;;8262262;28;20226;-70
2022/11/15 06:15:28;;;;;;;36.30;13.97;;;;;3.50;96006.00;;;;8265424;28;20245;-70
2022/11/15 06:19:32;;;;;;;29.17;12.87;;;;;3.30;96005.00;;;;8268462;28;20225;-69
2022/11/15 06:23:37;;;;;;;24.37;10.97;;;;;3.10;96011.00;;;;8267627;28;20600;-70
2022/11/15 06:28:14;;;;;;;27.47;12.57;;;;;2.90;96003.00;;;;8267044;28;20233;-70
2022/11/15 06:32:17;;;;;;;29.97;12.30;;;;;2.80;96017.00;;;;8267482;28;20232;-71
2022/11/15 06:36:51;;;;;;;41.07;13.87;;;;;2.80;96022.00;;;;8267915;28;20241;-72
2022/11/15 06:40:55;;;;;;;35.43;14.10;;;;;2.80;96033.00;;;;8267388;28;20229;-72
2022/11/15 06:44:58;;;;;;;28.87;11.87;;;;;2.80;96037.00;;;;8266776;28;20363;-73
2022/11/15 06:49:02;;;;;;;27.43;11.40;;;;;2.80;96030.00;;;;8266670;28;20279;-73
2022/11/15 06:53:11;;;;;;;28.13;11.17;;;;;2.80;96030.00;;;;8267054;28;20225;-74
2022/11/15 06:57:15;;;;;;;29.37;12.67;;;;;2.80;96026.00;;;;8266920;28;20312;-74
2022/11/15 07:01:50;;;;;;;38.40;14.40;;;;;2.70;96020.00;;;;8266204;28;20654;-74
2022/11/15 07:06:26;;;;;;;38.73;14.50;;;;;2.80;96027.00;;;;8266646;28;20636;-74
2022/11/15 07:10:29;;;;;;;46.47;18.90;;;;;3.10;96032.00;;;;8266141;28;20695;-72
2022/11/15 07:15:02;;;;;;;44.97;16.80;;;;;3.40;96018.00;;;;8266917;28;20234;-71
2022/11/15 07:19:06;;;;;;;41.17;16.03;;;;;3.70;96028.00;;;;8266489;28;20223;-71
2022/11/15 07:23:09;;;;;;;42.70;17.93;;;;;3.80;96024.00;;;;8266087;28;20560;-71
2022/11/15 07:27:46;;;;;;;43.47;18.83;;;;;4.10;96027.00;;;;8265567;28;20226;-71
2022/11/15 07:31:50;;;;;;;51.63;18.20;;;;;4.30;96029.00;;;;8266106;28;20228;-71
2022/11/15 07:36:25;;;;;;;33.90;15.03;;;;;4.40;96016.00;;;;8266060;28;20564;-71
2022/11/15 07:40:31;;;;;;;44.20;18.27;;;;;4.40;96011.00;;;;8265041;28;20230;-71
2022/11/15 07:44:34;;;;;;;42.40;17.97;;;;;4.60;96014.00;;;;8266124;28;20697;-70
2022/11/15 07:49:08;;;;;;;46.13;19.33;;;;;4.80;96007.00;;;;8265177;28;20229;-72
2022/11/15 07:53:13;;;;;;;39.40;17.73;;;;;4.90;95996.00;;;;8265105;28;20599;-73
2022/11/15 07:57:16;;;;;;;45.27;17.60;;;;;5.10;96000.00;;;;8265205;28;20548;-72
2022/11/15 08:01:52;;;;;;;36.33;15.67;;;;;5.20;96006.00;;;;8264556;28;20671;-72
2022/11/15 08:05:55;;;;;;;30.93;13.73;;;;;5.30;96008.00;;;;8264509;28;20245;-73
2022/11/15 08:10:01;;;;;;;33.10;13.03;;;;;5.30;96006.00;;;;8264710;28;20584;-72
2022/11/15 08:14:38;;;;;;;26.73;13.20;;;;;5.20;96013.00;;;;8263715;28;20230;-73
2022/11/15 08:18:41;;;;;;;29.97;12.93;;;;;5.20;96021.00;;;;8263964;28;20227;-73
2022/11/15 08:22:44;;;;;;;35.90;14.23;;;;;5.20;96012.00;;;;8263869;28;20237;-73
2022/11/15 08:26:48;;;;;;;36.37;15.07;;;;;5.20;96010.00;;;;8264247;28;20287;-74
2022/11/15 08:30:52;;;;;;;38.50;16.33;;;;;5.30;96019.00;;;;8264416;28;20658;-73
2022/11/15 08:34:55;;;;;;;36.87;16.63;;;;;5.40;96009.00;;;;8263965;28;20238;-73
2022/11/15 08:39:32;;;;;;;41.63;17.93;;;;;5.60;95996.00;;;;8263790;28;20219;-73
2022/11/15 08:43:36;;;;;;;35.77;15.57;;;;;5.80;96002.00;;;;8264261;28;20620;-73
2022/11/15 08:47:39;;;;;;;37.70;15.90;;;;;6.00;95990.00;;;;8263656;28;20279;-74
2022/11/15 08:51:43;;;;;;;33.30;15.53;;;;;6.20;95977.00;;;;8263601;28;20667;-74
2022/11/15 08:55:46;;;;;;;33.83;16.23;;;;;6.40;95978.00;;;;8264080;28;20663;-73
2022/11/15 08:59:50;;;;;;;36.77;16.63;;;;;6.70;95981.00;;;;8263357;28;20261;-73
2022/11/15 09:04:24;;;;;;;38.33;16.37;;;;;7.00;95982.00;;;;8263430;28;20230;-74
2022/11/15 09:08:31;;;;;;;41.87;17.80;;;;;7.30;95970.00;;;;8262664;28;20234;-74
2022/11/15 09:12:50;;;;;;;43.80;17.53;;;;;7.60;95974.00;;;;8262899;28;20226;-75
2022/11/15 09:16:55;;;;;;;38.47;17.40;;;;;8.00;95970.00;;;;8260892;28;20266;-74
2022/11/15 09:20:58;;;;;;;33.37;16.57;;;;;8.20;95964.00;;;;8261315;28;20297;-75
2022/11/15 09:25:01;;;;;;;34.63;16.63;;;;;8.40;95966.00;;;;8262844;28;20226;-76
2022/11/15 09:29:07;;;;;;;34.60;15.23;;;;;8.60;95972.00;;;;8291047;28;20218;-76
2022/11/15 09:33:13;;;;;;;33.47;16.27;;;;;8.80;95978.00;;;;8294915;28;20260;-76
2022/11/15 09:37:16;;;;;;;28.40;14.38;;;;;9.00;95985.00;;;;8294254;28;20230;-78
2022/11/15 09:41:33;;;;;;;29.55;15.02;;;;;9.10;95974.00;;;;8295076;28;20738;-79
2022/11/15 09:46:10;;;;;;;30.60;14.73;;;;;9.10;95959.00;;;;8295248;28;20229;-79
2022/11/15 09:50:18;;;;;;;32.53;15.63;;;;;9.30;95952.00;;;;8299162;28;20722;-79
2022/11/15 09:54:28;;;;;;;28.60;15.20;;;;;9.40;95946.00;;;;8300753;28;20243;-80
2022/11/15 09:58:59;;;;;;;30.30;15.05;;;;;9.50;95944.00;;;;8300560;28;20246;-81
2022/11/15 10:03:15;;;;;;;33.88;14.80;;;;;9.60;95938.00;;;;8300780;28;20226;-82
2022/11/15 10:07:26;;;;;;;36.93;15.70;;;;;9.70;95922.00;;;;8301173;28;20292;-82
2022/11/15 10:11:32;;;;;;;30.23;15.18;;;;;9.80;95917.00;;;;8300745;28;20230;-84
2022/11/15 10:15:45;;;;;;;35.13;15.68;;;;;10.00;95902.00;;;;8300006;28;20233;-85
2022/11/15 10:19:57;;;;;;;28.27;14.45;;;;;10.10;95896.00;;;;8300529;28;20219;-89
2022/11/15 10:24:13;;;;;;;24.73;13.77;;;;;10.10;95891.00;;;;8300950;28;20315;-89
2022/11/15 10:28:18;;;;;;;27.45;14.70;;;;;10.30;95885.00;;;;8300637;28;20222;-91
2022/11/15 10:32:22;;;;;;;23.27;13.02;;;;;10.30;95889.00;;;;8300600;28;20230;-92
2022/11/15 10:37:00;;;;;;;22.90;12.25;;;;;10.30;95879.00;;;;8299698;28;20694;-92
2022/11/15 10:41:09;;;;;;;20.23;12.02;;;;;10.50;95865.00;;;;8300367;28;20240;-92
2022/11/15 10:45:26;;;;;;;23.70;12.63;;;;;10.60;95854.00;;;;8299910;28;20221;-92
2022/11/15 10:49:54;;;;;;;22.60;13.23;;;;;10.70;95853.00;;;;8300119;28;20571;-91
2022/11/15 10:54:01;;;;;;;22.35;12.20;;;;;10.80;95851.00;;;;8299929;28;20213;-95
2022/11/15 10:58:20;;;;;;;22.83;12.02;;;;;10.90;95845.00;;;;8299785;28;20337;-91
2022/11/15 11:02:31;;;;;;;24.17;12.68;;;;;11.10;95849.00;;;;8298991;28;20694;-89
2022/11/15 11:06:48;;;;;;;24.50;12.60;;;;;11.10;95838.00;;;;8300504;28;20258;-88
2022/11/15 11:10:55;;;;;;;21.67;12.20;;;;;11.20;95822.00;;;;8298175;28;20214;-87
2022/11/15 11:15:13;;;;;;;20.20;11.63;;;;;11.30;95810.00;;;;8298802;28;20895;-85
2022/11/15 11:19:48;;;;;;;24.13;12.52;;;;;11.40;95804.00;;;;8298454;28;20567;-83
2022/11/15 11:23:55;;;;;;;20.67;12.57;;;;;11.50;95804.00;;;;8298687;28;20230;-83
2022/11/15 11:28:21;;;;;;;20.80;12.10;;;;;11.60;95802.00;;;;8298446;28;20551;-83
2022/11/15 11:32:49;;;;;;;19.67;11.25;;;;;11.70;95803.00;;;;8298670;28;20245;-83
2022/11/15 11:37:04;;;;;;;20.00;11.73;;;;;11.80;95805.00;;;;8298262;28;20222;-84
2022/11/15 11:41:19;;;;;;;22.42;12.35;;;;;11.90;95798.00;;;;8298675;28;20558;-84
2022/11/15 11:45:59;;;;;;;22.50;12.52;;;;;11.90;95785.00;;;;8298189;28;20268;-84
2022/11/15 11:50:14;;;;;;;20.83;12.52;;;;;11.80;95778.00;;;;8287869;28;20226;-83
2022/11/15 11:54:23;;;;;;;21.35;12.35;;;;;11.70;95771.00;;;;8297642;28;20216;-83
2022/11/15 11:58:34;;;;;;;22.35;12.73;;;;;11.60;95762.00;;;;8297901;28;20279;-84
2022/11/15 12:02:42;;;;;;;21.65;12.23;;;;;11.60;95753.00;;;;8297222;28;20219;-83
2022/11/15 12:07:16;;;;;;;19.73;11.75;;;;;11.70;95745.00;;;;8297105;28;20240;-83
2022/11/15 12:11:24;;;;;;;20.60;10.90;;;;;11.80;95742.00;;;;8296527;28;20300;-83
2022/11/15 12:15:31;;;;;;;21.33;11.50;;;;;11.90;95741.00;;;;8296583;28;20696;-82
2022/11/15 12:20:04;;;;;;;17.30;10.82;;;;;12.10;95735.00;;;;8297130;28;20227;-83
2022/11/15 12:24:13;;;;;;;20.52;10.93;;;;;12.30;95722.00;;;;8296654;28;20230;-83
2022/11/15 12:28:21;;;;;;;17.55;10.88;;;;;12.30;95710.00;;;;8295775;28;20221;-82
2022/11/15 12:32:54;;;;;;;20.17;10.60;;;;;12.30;95714.00;;;;8296528;28;20222;-83
2022/11/15 12:36:57;;;;;;;19.25;11.15;;;;;12.40;95707.00;;;;8296520;28;20228;-82
2022/11/15 12:41:16;;;;;;;20.58;11.13;;;;;12.50;95704.00;;;;8296504;28;20547;-82
2022/11/15 12:45:28;;;;;;;22.60;10.65;;;;;12.50;95706.00;;;;8295989;28;20212;-83
2022/11/15 12:50:05;;;;;;;17.13;9.68;;;;;12.60;95700.00;;;;8296451;28;20280;-83
2022/11/15 12:54:38;;;;;;;16.85;9.45;;;;;12.60;95697.00;;;;8295886;28;20224;-83
2022/11/15 12:58:49;;;;;;;14.05;9.55;;;;;12.60;95694.00;;;;8295022;28;20300;-83
2022/11/15 13:03:27;;;;;;;18.80;8.95;;;;;12.60;95690.00;;;;8294827;28;20221;-83
2022/11/15 13:08:01;;;;;;;21.70;9.18;;;;;12.60;95692.00;;;;8295645;28;20235;-83
2022/11/15 13:12:07;;;;;;;13.23;8.13;;;;;12.70;95704.00;;;;8295227;28;20643;-82
2022/11/15 13:16:18;;;;;;;12.52;8.57;;;;;12.70;95693.00;;;;8295381;28;20225;-82
2022/11/15 13:20:24;;;;;;;12.35;8.15;;;;;12.80;95692.00;;;;8295357;28;20274;-83
2022/11/15 13:24:27;;;;;;;14.15;8.30;;;;;12.90;95681.00;;;;8294865;28;20282;-82
2022/11/15 13:28:37;;;;;;;12.63;8.00;;;;;12.90;95681.00;;;;8295597;28;20290;-82
2022/11/15 13:32:42;;;;;;;13.90;8.10;;;;;12.90;95690.00;;;;8295093;28;20272;-82
2022/11/15 13:36:45;;;;;;;15.77;8.50;;;;;12.90;95683.00;;;;8295416;28;20225;-81
2022/11/15 13:41:20;;;;;;;13.27;7.60;;;;;12.90;95677.00;;;;8294233;28;20217;-81
2022/11/15 13:45:24;;;;;;;12.43;7.85;;;;;12.90;95681.00;;;;8293083;28;20221;-80
2022/11/15 13:50:00;;;;;;;12.63;7.55;;;;;12.90;95663.00;;;;8294628;28;20237;-80
2022/11/15 13:54:36;;;;;;;16.80;7.43;;;;;12.90;95669.00;;;;8294285;28;20220;-80
2022/11/15 13:58:40;;;;;;;9.25;6.57;;;;;12.90;95672.00;;;;8294591;28;20316;-80
2022/11/15 14:02:43;;;;;;;12.10;6.43;;;;;13.00;95667.00;;;;8294532;28;20305;-80
2022/11/15 14:06:54;;;;;;;11.43;6.30;;;;;13.00;95658.00;;;;8294600;28;20226;-81
2022/11/15 14:11:15;;;;;;;11.05;6.70;;;;;13.00;95657.00;;;;8293489;28;20221;-81
2022/11/15 14:15:29;;;;;;;9.90;6.50;;;;;13.10;95651.00;;;;8293778;28;20222;-81
2022/11/15 14:19:57;;;;;;;10.35;6.00;;;;;13.10;95644.00;;;;8294040;28;20268;-81
2022/11/15 14:24:17;;;;;;;13.43;6.18;;;;;13.10;95638.00;;;;8293613;28;20222;-80
2022/11/15 14:28:32;;;;;;;7.57;5.88;;;;;13.10;95620.00;;;;8292822;28;20218;-80
2022/11/15 14:32:43;;;;;;;8.45;5.50;;;;;13.10;95625.00;;;;8293996;28;20292;-80
2022/11/15 14:37:19;;;;;;;9.20;5.55;;;;;13.00;95610.00;;;;8299136;28;20233;-80
2022/11/15 14:41:26;;;;;;;10.07;6.00;;;;;13.00;95613.00;;;;8299080;28;20229;-80
2022/11/15 14:45:29;;;;;;;8.48;5.47;;;;;12.90;95606.00;;;;8299430;28;20248;-81
2022/11/15 14:50:06;;;;;;;11.43;6.20;;;;;12.80;95607.00;;;;8299150;28;20276;-80
2022/11/15 14:54:10;;;;;;;13.98;6.95;;;;;12.70;95594.00;;;;8298750;28;20217;-80
2022/11/15 14:58:15;;;;;;;13.00;7.95;;;;;12.60;95593.00;;;;8299257;28;20228;-80
2022/11/15 15:02:49;;;;;;;18.17;8.60;;;;;12.50;95592.00;;;;8298399;28;20247;-80
2022/11/15 15:06:52;;;;;;;14.88;8.85;;;;;12.30;95593.00;;;;8298907;28;20260;-80
2022/11/15 15:10:55;;;;;;;13.45;8.60;;;;;12.00;95590.00;;;;8298040;28;20229;-80
2022/11/15 15:15:00;;;;;;;17.13;8.68;;;;;11.80;95592.00;;;;8298536;28;20733;-81
2022/11/15 15:19:33;;;;;;;16.58;8.32;;;;;11.60;95579.00;;;;8298067;28;20280;-82
2022/11/15 15:23:37;;;;;;;15.77;10.10;;;;;11.20;95574.00;;;;8296378;28;20287;-81
2022/11/15 15:28:14;;;;;;;13.43;8.88;;;;;10.80;95564.00;;;;8296103;28;20275;-78
2022/11/15 15:32:19;;;;;;;15.18;8.75;;;;;10.60;95571.00;;;;8293493;28;20598;-79
2022/11/15 15:36:22;;;;;;;18.92;9.57;;;;;10.40;95570.00;;;;8296960;28;20595;-79
2022/11/15 15:40:59;;;;;;;18.38;9.63;;;;;10.10;95566.00;;;;8297803;28;20228;-79
2022/11/15 15:45:02;;;;;;;15.10;8.07;;;;;9.80;95560.00;;;;8285597;28;20591;-79
2022/11/15 15:49:10;;;;;;;13.90;8.68;;;;;9.50;95554.00;;;;8297392;28;20545;-80
2022/11/15 15:53:14;;;;;;;13.98;8.60;;;;;9.20;95547.00;;;;8296148;28;20220;-80
2022/11/15 15:57:18;;;;;;;25.52;14.82;;;;;9.00;95559.00;;;;8296590;28;20656;-79
2022/11/15 16:01:21;;;;;;;24.33;10.75;;;;;9.00;95558.00;;;;8296299;28;20217;-80
2022/11/15 16:05:59;;;;;;;18.35;9.32;;;;;8.90;95554.00;;;;8296358;28;20206;-79
2022/11/15 16:10:14;;;;;;;25.92;12.52;;;;;8.70;95561.00;;;;8296734;28;20669;-80
2022/11/15 16:14:17;;;;;;;20.02;11.00;;;;;8.60;95568.00;;;;8296806;28;20540;-79
2022/11/15 16:18:54;;;;;;;23.38;9.25;;;;;8.30;95558.00;;;;8296646;28;20229;-80
2022/11/15 16:22:58;;;;;;;20.50;10.82;;;;;8.10;95552.00;;;;8295817;28;20644;-80
2022/11/15 16:27:37;;;;;;;26.23;12.70;;;;;7.90;95555.00;;;;8296597;28;20630;-80
2022/11/15 16:31:40;;;;;;;25.63;12.40;;;;;7.70;95549.00;;;;8294211;28;20222;-79
2022/11/15 16:35:43;;;;;;;23.25;11.73;;;;;7.60;95555.00;;;;8296334;28;20222;-81
2022/11/15 16:40:23;;;;;;;20.80;11.00;;;;;7.40;95559.00;;;;8296317;28;20600;-80
2022/11/15 16:44:29;;;;;;;21.70;11.00;;;;;7.40;95549.00;;;;8295013;28;20221;-79
2022/11/15 16:48:33;;;;;;;21.42;10.85;;;;;7.30;95554.00;;;;8295418;28;20230;-80
2022/11/15 16:52:37;;;;;;;21.57;11.00;;;;;7.20;95555.00;;;;8296121;28;20611;-81
2022/11/15 16:57:11;;;;;;;24.30;12.00;;;;;7.00;95558.00;;;;8295441;28;20316;-80
2022/11/15 17:01:22;;;;;;;23.07;11.50;;;;;6.80;95553.00;;;;8294926;28;20591;-81
2022/11/15 17:05:26;;;;;;;23.27;11.70;;;;;6.70;95549.00;;;;8295100;28;20214;-81
2022/11/15 17:09:29;;;;;;;25.40;13.27;;;;;6.60;95552.00;;;;8295289;28;20690;-82
2022/11/15 17:13:33;;;;;;;31.10;13.90;;;;;6.40;95546.00;;;;8295703;28;20226;-82
2022/11/15 17:17:37;;;;;;;30.97;12.60;;;;;6.30;95539.00;;;;8294985;28;20233;-82
2022/11/15 17:21:41;;;;;;;32.50;14.47;;;;;6.20;95527.00;;;;8295283;28;20226;-81
2022/11/15 17:25:44;;;;;;;50.70;20.10;;;;;6.10;95525.00;;;;8294839;28;20241;-81
2022/11/15 17:29:47;;;;;;;39.27;15.57;;;;;6.10;95523.00;;;;8295109;28;20567;-82
2022/11/15 17:33:52;;;;;;;49.80;20.20;;;;;6.20;95521.00;;;;8294879;28;20615;-82
2022/11/15 17:38:25;;;;;;;38.90;16.97;;;;;6.20;95517.00;;;;8295238;28;20710;-82
2022/11/15 17:42:28;;;;;;;30.83;13.93;;;;;6.20;95519.00;;;;8292703;28;20225;-81
2022/11/15 17:46:32;;;;;;;32.07;15.23;;;;;6.20;95512.00;;;;8294986;28;20602;-82
2022/11/15 17:51:10;;;;;;;36.10;16.60;;;;;6.40;95502.00;;;;8294196;28;20417;-82
2022/11/15 17:55:43;;;;;;;25.90;13.37;;;;;6.60;95514.00;;;;8294767;28;20230;-82
2022/11/15 18:00:21;;;;;;;30.23;13.90;;;;;6.60;95499.00;;;;8294294;28;20221;-81
2022/11/15 18:04:58;;;;;;;30.30;13.57;;;;;6.80;95495.00;;;;8294526;28;20229;-81
2022/11/15 18:09:03;;;;;;;31.17;16.37;;;;;6.80;95484.00;;;;8295770;28;20631;-81
2022/11/15 18:13:38;;;;;;;50.57;31.40;;;;;7.00;95490.00;;;;8301202;28;20221;-82
2022/11/15 18:18:15;;;;;;;51.47;26.60;;;;;7.00;95496.00;;;;8300686;28;20234;-82
2022/11/15 18:22:52;;;;;;;41.20;20.57;;;;;6.90;95502.00;;;;8300350;28;20218;-82
2022/11/15 18:26:57;;;;;;;36.03;17.77;;;;;6.90;95502.00;;;;8300150;28;20229;-81
2022/11/15 18:31:01;;;;;;;41.00;19.27;;;;;6.80;95494.00;;;;8300915;28;20645;-82
2022/11/15 18:35:06;;;;;;;39.43;17.17;;;;;6.80;95505.00;;;;8300082;28;20632;-81
2022/11/15 18:39:43;;;;;;;44.63;17.67;;;;;6.70;95506.00;;;;8299805;28;20559;-81
2022/11/15 18:44:22;;;;;;;38.27;16.77;;;;;6.70;95500.00;;;;8299653;28;20238;-82
2022/11/15 18:48:56;;;;;;;48.13;20.40;;;;;6.60;95490.00;;;;8299420;28;20248;-80
2022/11/15 18:53:00;;;;;;;55.97;20.87;;;;;6.50;95480.00;;;;8298841;28;20213;-81
2022/11/15 18:57:03;;;;;;;48.93;22.40;;;;;6.50;95473.00;;;;8299692;28;20528;-81
2022/11/15 19:01:10;;;;;;;47.23;21.63;;;;;6.60;95470.00;;;;8299119;28;20222;-81
2022/11/15 19:05:15;;;;;;;31.80;16.83;;;;;6.70;95472.00;;;;8291815;28;20305;-81
2022/11/15 19:09:53;;;;;;;33.80;15.60;;;;;7.00;95463.00;;;;8300037;28;20277;-81
2022/11/15 19:13:59;;;;;;;35.27;14.90;;;;;7.20;95464.00;;;;8299074;28;20229;-81
2022/11/15 19:18:04;;;;;;;36.33;17.73;;;;;7.30;95454.00;;;;8299009;28;20229;-81
2022/11/15 19:22:37;;;;;;;43.87;20.77;;;;;7.30;95439.00;;;;8296912;28;20229;-82
2022/11/15 19:27:00;;;;;;;29.90;15.13;;;;;7.20;95439.00;;;;8298645;28;20236;-81
2022/11/15 19:31:06;;;;;;;27.27;13.67;;;;;7.20;95441.00;;;;8298829;28;20279;-81
2022/11/15 19:35:41;;;;;;;32.13;13.63;;;;;7.30;95433.00;;;;8299172;28;20656;-82
2022/11/15 19:40:18;;;;;;;32.97;12.80;;;;;7.50;95424.00;;;;8298660;28;20595;-81
2022/11/15 19:44:21;;;;;;;23.67;12.30;;;;;7.70;95437.00;;;;8298986;28;20214;-81
2022/11/15 19:48:25;;;;;;;26.10;12.53;;;;;7.80;95429.00;;;;8298212;28;20230;-81
2022/11/15 19:52:29;;;;;;;25.40;12.33;;;;;7.90;95431.00;;;;8298163;28;20226;-81
2022/11/15 19:56:33;;;;;;;30.73;13.10;;;;;7.90;95428.00;;;;8297839;28;20647;-81
2022/11/15 20:01:13;;;;;;;34.35;15.02;;;;;7.90;95429.00;;;;8298350;28;20225;-82
2022/11/15 20:05:47;;;;;;;28.23;14.70;;;;;7.90;95430.00;;;;8297239;28;20237;-81
2022/11/15 20:09:52;;;;;;;23.73;13.03;;;;;7.90;95434.00;;;;8297942;28;20236;-82
2022/11/15 20:13:57;;;;;;;29.03;14.93;;;;;7.90;95426.00;;;;8297664;28;20218;-82
2022/11/15 20:18:31;;;;;;;30.20;14.83;;;;;7.80;95420.00;;;;8296880;28;20217;-82
2022/11/15 20:22:34;;;;;;;24.33;12.83;;;;;7.80;95408.00;;;;8291329;28;20260;-82
2022/11/15 20:27:14;;;;;;;28.43;12.87;;;;;7.70;95408.00;;;;8294646;28;20234;-82
2022/11/15 20:31:17;;;;;;;21.70;11.93;;;;;7.70;95404.00;;;;8296732;28;20218;-82
2022/11/15 20:35:54;;;;;;;28.30;13.00;;;;;7.60;95398.00;;;;8296165;28;20226;-83
2022/11/15 20:39:58;;;;;;;26.53;13.30;;;;;7.50;95392.00;;;;8295950;28;20292;-83
2022/11/15 20:44:06;;;;;;;30.57;13.10;;;;;7.50;95394.00;;;;8295627;28;20233;-82
2022/11/15 20:48:12;;;;;;;32.20;14.27;;;;;7.60;95397.00;;;;8295893;28;20218;-82
2022/11/15 20:52:15;;;;;;;25.87;13.10;;;;;7.60;95393.00;;;;8296101;28;20222;-83
2022/11/15 20:56:20;;;;;;;25.87;13.60;;;;;7.70;95393.00;;;;8295754;28;20224;-83
2022/11/15 21:00:58;;;;;;;28.77;13.67;;;;;7.70;95369.00;;;;8295734;28;20280;-83
2022/11/15 21:05:33;;;;;;;27.73;12.43;;;;;7.60;95368.00;;;;8284394;28;20238;-83
2022/11/15 21:14:47;;;;;;;26.13;13.43;;;;;7.50;95377.00;;;;8295570;28;20217;-82
2022/11/15 21:18:53;;;;;;;30.50;14.32;;;;;7.60;95386.00;;;;8291851;28;20230;-82
2022/11/15 21:22:56;;;;;;;28.27;13.97;;;;;7.60;95378.00;;;;8295743;28;20298;-82